createdAt,value
2023-05-06T00:01:21.468Z,95581.15
2023-05-06T00:03:48.351Z,95583.18
2023-05-06T00:06:15.252Z,95578.42
2023-05-06T00:08:41.912Z,95578.08
2023-05-06T00:11:08.661Z,95575.55
2023-05-06T00:13:35.237Z,95578.79
2023-05-06T00:16:01.797Z,95573.20
2023-05-06T00:18:28.601Z,95575.31
2023-05-06T00:20:55.470Z,95571.30
2023-05-06T00:23:22.193Z,95570.16
2023-05-06T00:25:48.935Z,95574.81
2023-05-06T00:28:15.476Z,95573.70
2023-05-06T00:30:42.147Z,95573.05
2023-05-06T00:33:08.909Z,95572.76
2023-05-06T00:35:35.606Z,95572.64
2023-05-06T00:38:12.667Z,95575.70
2023-05-06T00:40:39.388Z,95574.35
2023-05-06T00:43:07.219Z,95575.43
2023-05-06T00:45:34.021Z,95577.11
2023-05-06T00:48:01.276Z,95574.21
2023-05-06T00:50:29.261Z,95572.94
2023-05-06T00:52:57.806Z,95571.48
2023-05-06T00:55:25.066Z,95573.11
2023-05-06T00:57:52.072Z,95574.13
2023-05-06T01:00:19.594Z,95574.05
2023-05-06T01:02:47.938Z,95573.54
2023-05-06T01:05:17.023Z,95571.39
2023-05-06T01:07:43.630Z,95572.47
2023-05-06T01:10:18.241Z,95570.02
2023-05-06T01:12:50.961Z,95573.24
2023-05-06T01:15:25.602Z,95579.35
2023-05-06T01:17:53.094Z,95583.69
2023-05-06T01:20:20.870Z,95579.17
2023-05-06T01:22:48.636Z,95581.65
2023-05-06T01:25:21.488Z,95575.00
2023-05-06T01:27:48.649Z,95579.63
2023-05-06T01:30:16.405Z,95579.41
2023-05-06T01:33:06.536Z,95579.52
2023-05-06T01:35:52.140Z,95579.77
2023-05-06T01:38:42.653Z,95582.11
2023-05-06T01:41:14.363Z,95582.37
2023-05-06T01:43:42.495Z,95583.28
2023-05-06T01:46:17.376Z,95581.58
2023-05-06T01:48:45.340Z,95578.33
2023-05-06T01:51:12.063Z,95579.34
2023-05-06T01:53:38.932Z,95580.31
2023-05-06T01:56:06.309Z,95577.83
2023-05-06T01:58:33.032Z,95575.04
2023-05-06T02:00:59.780Z,95578.16
2023-05-06T02:03:26.750Z,95576.98
2023-05-06T02:05:53.765Z,95574.01
2023-05-06T02:08:21.007Z,95572.79
2023-05-06T02:10:47.701Z,95576.20
2023-05-06T02:13:14.371Z,95575.34
2023-05-06T02:15:41.148Z,95577.52
2023-05-06T02:18:11.080Z,95578.41
2023-05-06T02:20:37.712Z,95578.45
2023-05-06T02:23:04.676Z,95575.91
2023-05-06T02:25:31.850Z,95579.62
2023-05-06T02:27:58.574Z,95581.58
2023-05-06T02:30:25.519Z,95581.00
2023-05-06T02:32:52.231Z,95581.17
2023-05-06T02:35:19.066Z,95579.23
2023-05-06T02:37:45.757Z,95580.22
2023-05-06T02:40:12.475Z,95581.59
2023-05-06T02:42:39.278Z,95579.89
2023-05-06T02:45:06.344Z,95580.24
2023-05-06T02:47:33.745Z,95579.11
2023-05-06T02:50:00.602Z,95583.02
2023-05-06T02:52:27.296Z,95581.63
2023-05-06T02:54:53.880Z,95585.33
2023-05-06T02:57:20.558Z,95585.52
2023-05-06T02:59:47.237Z,95587.36
2023-05-06T03:02:14.000Z,95583.77
2023-05-06T03:04:41.165Z,95589.30
2023-05-06T03:07:07.841Z,95590.45
2023-05-06T03:09:34.744Z,95586.73
2023-05-06T03:12:01.636Z,95582.32
2023-05-06T03:14:28.515Z,95586.75
2023-05-06T03:16:55.376Z,95584.82
2023-05-06T03:19:22.335Z,95590.73
2023-05-06T03:21:49.022Z,95590.89
2023-05-06T03:24:16.328Z,95592.88
2023-05-06T03:26:42.944Z,95592.44
2023-05-06T03:29:10.754Z,95593.45
2023-05-06T03:31:37.988Z,95596.37
2023-05-06T03:34:04.911Z,95598.55
2023-05-06T03:36:32.500Z,95593.91
2023-05-06T03:38:59.512Z,95600.70
2023-05-06T03:41:26.706Z,95601.70
2023-05-06T03:43:55.209Z,95602.31
2023-05-06T03:46:22.368Z,95601.39
2023-05-06T03:48:49.737Z,95603.50
2023-05-06T03:51:17.285Z,95607.16
2023-05-06T03:53:43.881Z,95610.49
2023-05-06T03:56:10.443Z,95610.60
2023-05-06T03:58:38.105Z,95615.44
2023-05-06T04:01:05.522Z,95612.39
2023-05-06T04:03:32.593Z,95608.14
2023-05-06T04:05:59.882Z,95609.73
2023-05-06T04:08:26.815Z,95606.73
2023-05-06T04:10:54.214Z,95609.34
2023-05-06T04:13:26.963Z,95605.79
2023-05-06T04:15:54.239Z,95608.22
2023-05-06T04:18:23.980Z,95604.55
2023-05-06T04:21:00.790Z,95607.05
2023-05-06T04:23:28.029Z,95606.20
2023-05-06T04:25:55.544Z,95610.30
2023-05-06T04:28:23.130Z,95614.45
2023-05-06T04:30:50.961Z,95612.39
2023-05-06T04:33:18.400Z,95613.83
2023-05-06T04:35:58.911Z,95611.95
2023-05-06T04:38:29.856Z,95609.02
2023-05-06T04:40:56.849Z,95607.14
2023-05-06T04:43:25.529Z,95609.64
2023-05-06T04:45:56.141Z,95611.70
2023-05-06T04:48:26.366Z,95610.13
2023-05-06T04:50:55.012Z,95610.20
2023-05-06T04:53:22.724Z,95612.41
2023-05-06T04:55:49.367Z,95603.59
2023-05-06T04:58:16.643Z,95604.44
2023-05-06T05:00:44.240Z,95600.86
2023-05-06T05:03:12.370Z,95600.16
2023-05-06T05:05:39.770Z,95596.87
2023-05-06T05:08:09.622Z,95595.92
2023-05-06T05:10:36.504Z,95593.80
2023-05-06T05:13:05.290Z,95589.96
2023-05-06T05:15:33.452Z,95586.88
2023-05-06T05:18:01.062Z,95587.35
2023-05-06T05:20:28.684Z,95587.00
2023-05-06T05:22:56.705Z,95581.51
2023-05-06T05:25:24.553Z,95585.04
2023-05-06T05:27:51.374Z,95584.98
2023-05-06T05:30:18.597Z,95580.96
2023-05-06T05:32:46.278Z,95580.27
2023-05-06T05:35:14.358Z,95575.86
2023-05-06T05:37:44.684Z,95578.27
2023-05-06T05:40:12.770Z,95577.67
2023-05-06T05:42:40.292Z,95575.73
2023-05-06T05:45:13.599Z,95575.38
2023-05-06T05:47:41.862Z,95569.95
2023-05-06T05:50:10.230Z,95573.88
2023-05-06T05:52:37.955Z,95574.73
2023-05-06T05:55:06.309Z,95568.73
2023-05-06T05:57:35.043Z,95573.16
2023-05-06T06:00:06.412Z,95575.48
2023-05-06T06:02:44.663Z,95574.23
2023-05-06T06:05:13.907Z,95576.13
2023-05-06T06:07:47.526Z,95573.80
2023-05-06T06:10:16.024Z,95575.43
2023-05-06T06:12:44.913Z,95575.30
2023-05-06T06:15:15.062Z,95576.61
2023-05-06T06:17:44.007Z,95575.74
2023-05-06T06:20:12.435Z,95575.21
2023-05-06T06:22:40.628Z,95574.59
2023-05-06T06:25:08.733Z,95574.27
2023-05-06T06:27:42.437Z,95575.78
2023-05-06T06:30:10.645Z,95577.04
2023-05-06T06:32:47.107Z,95583.56
2023-05-06T06:35:14.461Z,95585.19
2023-05-06T06:37:42.607Z,95581.26
2023-05-06T06:40:10.794Z,95585.83
2023-05-06T06:42:38.648Z,95581.44
2023-05-06T06:45:11.549Z,95583.05
2023-05-06T06:47:40.698Z,95582.73
2023-05-06T06:50:08.700Z,95585.85
2023-05-06T06:52:38.711Z,95583.95
2023-05-06T06:55:07.529Z,95583.75
2023-05-06T06:57:42.435Z,95579.54
2023-05-06T07:00:12.739Z,95577.38
2023-05-06T07:02:47.785Z,95581.63
2023-05-06T07:05:19.014Z,95580.70
2023-05-06T07:07:49.350Z,95580.03
2023-05-06T07:10:23.543Z,95580.08
2023-05-06T07:12:52.222Z,95578.12
2023-05-06T07:15:22.635Z,95577.52
2023-05-06T07:17:52.125Z,95579.07
2023-05-06T07:20:20.047Z,95576.87
2023-05-06T07:22:47.720Z,95576.63
2023-05-06T07:25:16.898Z,95570.64
2023-05-06T07:27:48.128Z,95570.04
2023-05-06T07:30:21.006Z,95570.52
2023-05-06T07:32:51.410Z,95572.70
2023-05-06T07:35:22.671Z,95567.34
2023-05-06T07:37:53.952Z,95567.39
2023-05-06T07:40:21.574Z,95569.56
2023-05-06T07:42:49.367Z,95572.27
2023-05-06T07:45:19.763Z,95573.52
2023-05-06T07:47:47.383Z,95569.78
2023-05-06T07:50:17.713Z,95568.71
2023-05-06T07:52:48.689Z,95566.63
2023-05-06T07:55:16.284Z,95568.31
2023-05-06T07:57:43.569Z,95568.06
2023-05-06T08:00:13.937Z,95570.52
2023-05-06T08:02:44.215Z,95575.64
2023-05-06T08:05:12.518Z,95573.29
2023-05-06T08:07:41.178Z,95568.65
2023-05-06T08:10:09.679Z,95568.15
2023-05-06T08:12:38.092Z,95570.45
2023-05-06T08:15:05.804Z,95571.41
2023-05-06T08:17:34.157Z,95572.38
2023-05-06T08:20:09.566Z,95573.05
2023-05-06T08:22:42.385Z,95573.43
2023-05-06T08:25:13.680Z,95579.61
2023-05-06T08:27:41.125Z,95575.09
2023-05-06T08:30:11.039Z,95580.14
2023-05-06T08:32:41.350Z,95578.11
2023-05-06T08:35:09.257Z,95570.65
2023-05-06T08:37:39.447Z,95570.35
2023-05-06T08:40:14.849Z,95573.45
2023-05-06T08:42:42.537Z,95577.02
2023-05-06T08:45:11.190Z,95575.89
2023-05-06T08:47:38.841Z,95576.41
2023-05-06T08:50:06.234Z,95575.91
2023-05-06T08:52:34.109Z,95578.90
2023-05-06T08:55:04.586Z,95581.73
2023-05-06T08:57:32.878Z,95578.70
2023-05-06T09:00:00.371Z,95570.63
2023-05-06T09:02:29.192Z,95568.51
2023-05-06T09:04:57.997Z,95569.33
2023-05-06T09:07:25.691Z,95568.53
2023-05-06T09:09:53.633Z,95566.43
2023-05-06T09:12:23.337Z,95567.64
2023-05-06T09:14:51.054Z,95563.08
2023-05-06T09:17:23.624Z,95559.81
2023-05-06T09:19:52.172Z,95556.50
2023-05-06T09:22:21.982Z,95554.64
2023-05-06T09:24:56.560Z,95556.98
2023-05-06T09:27:24.824Z,95556.20
2023-05-06T09:30:03.033Z,95553.55
2023-05-06T09:32:31.120Z,95556.63
2023-05-06T09:34:58.539Z,95557.38
2023-05-06T09:37:28.562Z,95551.02
2023-05-06T09:39:56.402Z,95551.50
2023-05-06T09:42:24.870Z,95546.88
2023-05-06T09:45:01.250Z,95546.68
2023-05-06T09:47:35.005Z,95547.13
2023-05-06T09:50:03.475Z,95549.27
2023-05-06T09:52:31.911Z,95549.19
2023-05-06T09:54:59.269Z,95549.83
2023-05-06T09:57:30.547Z,95549.55
2023-05-06T09:59:57.859Z,95547.98
2023-05-06T10:02:26.426Z,95545.30
2023-05-06T10:04:55.675Z,95546.80
2023-05-06T10:07:25.133Z,95544.09
2023-05-06T10:09:53.508Z,95540.17
2023-05-06T10:12:20.723Z,95537.30
2023-05-06T10:14:48.693Z,95534.18
2023-05-06T10:17:17.888Z,95533.67
2023-05-06T10:19:45.694Z,95527.30
2023-05-06T10:22:51.308Z,95521.41
2023-05-06T10:25:39.254Z,95520.30
2023-05-06T10:28:07.903Z,95517.33
2023-05-06T10:30:39.023Z,95519.95
2023-05-06T10:33:10.992Z,95520.00
2023-05-06T10:35:41.328Z,95517.48
2023-05-06T10:38:17.494Z,95514.17
2023-05-06T10:40:45.384Z,95514.25
2023-05-06T10:43:27.097Z,95512.42
2023-05-06T10:46:08.743Z,95509.59
2023-05-06T10:48:37.297Z,95511.02
2023-05-06T10:51:16.775Z,95511.27
2023-05-06T10:53:57.082Z,95519.64
2023-05-06T10:56:24.571Z,95517.00
2023-05-06T10:58:53.252Z,95518.19
2023-05-06T11:01:27.438Z,95509.88
2023-05-06T11:03:54.541Z,95513.55
2023-05-06T11:06:35.320Z,95504.62
2023-05-06T11:09:03.792Z,95507.41
2023-05-06T11:11:51.405Z,95505.56
2023-05-06T11:14:25.634Z,95502.65
2023-05-06T11:16:54.235Z,95503.90
2023-05-06T11:19:25.174Z,95501.86
2023-05-06T11:21:54.340Z,95497.45
2023-05-06T11:24:37.905Z,95496.13
2023-05-06T11:27:05.523Z,95493.92
2023-05-06T11:29:32.766Z,95491.33
2023-05-06T11:32:00.116Z,95490.59
2023-05-06T11:34:30.668Z,95489.25
2023-05-06T11:37:04.781Z,95489.71
2023-05-06T11:39:36.644Z,95493.58
2023-05-06T11:42:07.368Z,95493.63
2023-05-06T11:44:38.820Z,95492.14
2023-05-06T11:47:07.767Z,95486.48
2023-05-06T11:49:40.430Z,95487.35
2023-05-06T11:52:08.071Z,95487.73
2023-05-06T11:54:36.244Z,95486.89
2023-05-06T11:57:03.210Z,95485.55
2023-05-06T11:59:36.819Z,95490.55
2023-05-06T12:02:08.787Z,95490.25
2023-05-06T12:04:40.586Z,95492.48
2023-05-06T12:07:08.893Z,95493.66
2023-05-06T12:09:37.301Z,95494.33
2023-05-06T12:12:04.609Z,95491.34
2023-05-06T12:14:31.801Z,95494.33
2023-05-06T12:16:59.911Z,95494.27
2023-05-06T12:19:28.360Z,95489.28
2023-05-06T12:21:55.212Z,95489.19
2023-05-06T12:24:29.332Z,95489.61
2023-05-06T12:26:56.261Z,95488.94
2023-05-06T12:29:23.046Z,95486.20
2023-05-06T12:32:05.685Z,95494.68
2023-05-06T12:34:36.666Z,95490.94
2023-05-06T12:37:04.178Z,95489.13
2023-05-06T12:39:35.511Z,95494.43
2023-05-06T12:42:02.631Z,95488.70
2023-05-06T12:44:33.948Z,95493.31
2023-05-06T12:47:01.375Z,95490.15
2023-05-06T12:49:42.791Z,95493.48
2023-05-06T12:52:09.797Z,95486.88
2023-05-06T12:54:36.553Z,95487.38
2023-05-06T12:57:03.919Z,95487.81
2023-05-06T12:59:31.296Z,95489.89
2023-05-06T13:01:58.363Z,95490.36
2023-05-06T13:04:25.633Z,95489.59
2023-05-06T13:06:52.325Z,95493.23
2023-05-06T13:09:18.886Z,95487.09
2023-05-06T13:11:45.799Z,95489.64
2023-05-06T13:14:13.130Z,95489.64
2023-05-06T13:16:39.856Z,95482.60
2023-05-06T13:19:07.231Z,95488.05
2023-05-06T13:21:39.677Z,95487.58
2023-05-06T13:24:06.903Z,95497.53
2023-05-06T13:26:33.804Z,95498.27
2023-05-06T13:29:00.708Z,95495.20
2023-05-06T13:31:27.960Z,95493.88
2023-05-06T13:33:55.515Z,95488.81
2023-05-06T13:36:22.843Z,95485.98
2023-05-06T13:38:49.609Z,95483.83
2023-05-06T13:41:16.330Z,95485.69
2023-05-06T13:43:43.074Z,95482.40
2023-05-06T13:46:09.805Z,95480.20
2023-05-06T13:48:36.505Z,95478.17
2023-05-06T13:51:03.703Z,95478.11
2023-05-06T13:53:30.562Z,95471.59
2023-05-06T13:55:57.489Z,95473.60
2023-05-06T13:58:24.243Z,95469.84
2023-05-06T14:00:51.022Z,95467.65
2023-05-06T14:03:17.678Z,95470.46
2023-05-06T14:05:44.748Z,95465.77
2023-05-06T14:08:11.427Z,95459.77
2023-05-06T14:10:38.071Z,95459.35
2023-05-06T14:13:06.903Z,95457.96
2023-05-06T14:15:34.202Z,95458.70
2023-05-06T14:18:00.925Z,95457.73
2023-05-06T14:20:27.558Z,95461.96
2023-05-06T14:22:54.517Z,95458.13
2023-05-06T14:25:27.379Z,95454.83
2023-05-06T14:27:54.605Z,95452.52
2023-05-06T14:30:21.690Z,95453.41
2023-05-06T14:32:48.712Z,95450.86
2023-05-06T14:35:15.596Z,95449.79
2023-05-06T14:37:42.337Z,95450.66
2023-05-06T14:40:09.581Z,95452.48
2023-05-06T14:42:36.497Z,95448.14
2023-05-06T14:45:03.660Z,95445.71
2023-05-06T14:47:30.416Z,95440.27
2023-05-06T14:49:57.119Z,95440.36
2023-05-06T14:52:23.920Z,95441.77
2023-05-06T14:54:50.522Z,95436.56
2023-05-06T14:57:17.145Z,95439.98
2023-05-06T14:59:43.730Z,95440.42
2023-05-06T15:02:10.617Z,95433.61
2023-05-06T15:04:37.532Z,95431.00
2023-05-06T15:07:04.333Z,95430.34
2023-05-06T15:09:31.439Z,95431.73
2023-05-06T15:11:58.250Z,95431.18
2023-05-06T15:14:25.229Z,95427.36
2023-05-06T15:16:54.450Z,95425.52
2023-05-06T15:19:21.266Z,95424.07
2023-05-06T15:21:47.957Z,95424.78
2023-05-06T15:24:15.145Z,95430.15
2023-05-06T15:26:41.792Z,95431.22
2023-05-06T15:29:08.534Z,95427.04
2023-05-06T15:31:38.500Z,95428.52
2023-05-06T15:34:05.813Z,95430.08
2023-05-06T15:36:32.604Z,95432.35
2023-05-06T15:39:00.666Z,95431.54
2023-05-06T15:41:29.813Z,95426.67
2023-05-06T15:43:58.279Z,95426.22
2023-05-06T15:46:29.111Z,95428.96
2023-05-06T15:49:12.760Z,95429.83
2023-05-06T15:51:42.932Z,95430.50
2023-05-06T15:54:09.545Z,95427.25
2023-05-06T15:56:40.646Z,95425.79
2023-05-06T15:59:08.101Z,95426.73
2023-05-06T16:02:08.322Z,95423.59
2023-05-06T16:04:22.079Z,95422.89
2023-05-06T16:06:49.074Z,95414.50
2023-05-06T16:09:15.812Z,95413.65
2023-05-06T16:11:42.622Z,95415.45
2023-05-06T16:14:09.174Z,95415.17
2023-05-06T16:16:35.970Z,95414.13
2023-05-06T16:19:03.032Z,95412.14
2023-05-06T16:21:29.730Z,95411.14
2023-05-06T16:23:57.545Z,95410.52
2023-05-06T16:26:24.415Z,95408.80
2023-05-06T16:28:53.114Z,95407.75
2023-05-06T16:31:19.906Z,95402.71
2023-05-06T16:33:46.789Z,95402.71
2023-05-06T16:36:13.475Z,95403.09
2023-05-06T16:38:40.055Z,95411.01
2023-05-06T16:41:06.698Z,95418.19
2023-05-06T16:43:34.163Z,95424.86
2023-05-06T16:46:00.850Z,95431.36
2023-05-06T16:48:28.323Z,95438.27
2023-05-06T16:50:55.020Z,95442.05
2023-05-06T16:53:21.669Z,95440.41
2023-05-06T16:55:48.835Z,95444.27
2023-05-06T16:58:15.672Z,95441.98
2023-05-06T17:00:42.448Z,95443.60
2023-05-06T17:03:09.316Z,95448.58
2023-05-06T17:05:36.327Z,95448.50
2023-05-06T17:08:03.492Z,95449.77
2023-05-06T17:10:30.915Z,95449.30
2023-05-06T17:12:58.001Z,95451.71
2023-05-06T17:15:25.189Z,95454.58
2023-05-06T17:17:52.174Z,95460.92
2023-05-06T17:20:22.486Z,95462.80
2023-05-06T17:22:49.271Z,95466.45
2023-05-06T17:25:16.143Z,95467.20
2023-05-06T17:27:42.776Z,95465.05
2023-05-06T17:30:09.828Z,95463.88
2023-05-06T17:32:40.397Z,95461.96
2023-05-06T17:35:07.365Z,95460.92
2023-05-06T17:37:34.195Z,95469.27
2023-05-06T17:40:01.152Z,95468.25
2023-05-06T17:42:28.908Z,95464.35
2023-05-06T17:44:55.575Z,95462.40
2023-05-06T17:47:22.452Z,95468.02
2023-05-06T17:49:52.589Z,95469.73
2023-05-06T17:52:19.636Z,95473.75
2023-05-06T17:54:53.161Z,95473.70
2023-05-06T17:57:29.824Z,95477.48
2023-05-06T17:59:56.538Z,95480.91
2023-05-06T18:02:23.295Z,95491.34
2023-05-06T18:04:51.076Z,95488.67
2023-05-06T18:07:17.772Z,95490.30
2023-05-06T18:09:51.189Z,95495.71
2023-05-06T18:12:18.178Z,95500.18
2023-05-06T18:14:44.932Z,95496.86
2023-05-06T18:17:11.625Z,95495.84
2023-05-06T18:19:38.500Z,95501.25
2023-05-06T18:22:05.229Z,95498.94
2023-05-06T18:24:31.830Z,95501.69
2023-05-06T18:26:58.721Z,95502.44
2023-05-06T18:29:26.984Z,95504.79
2023-05-06T18:31:53.649Z,95507.02
2023-05-06T18:34:20.305Z,95509.41
2023-05-06T18:36:46.962Z,95512.03
2023-05-06T18:39:13.593Z,95514.64
2023-05-06T18:41:40.821Z,95515.94
2023-05-06T18:44:07.413Z,95517.54
2023-05-06T18:46:34.148Z,95520.86
2023-05-06T18:49:00.846Z,95521.90
2023-05-06T18:51:27.736Z,95520.98
2023-05-06T18:53:54.514Z,95525.47
2023-05-06T18:56:21.237Z,95518.52
2023-05-06T18:58:48.025Z,95514.48
2023-05-06T19:01:14.698Z,95515.66
2023-05-06T19:03:41.425Z,95514.27
2023-05-06T19:06:08.812Z,95509.83
2023-05-06T19:08:36.134Z,95509.16
2023-05-06T19:11:02.870Z,95505.48
2023-05-06T19:13:29.582Z,95504.15
2023-05-06T19:15:56.520Z,95498.83
2023-05-06T19:18:23.215Z,95502.98
2023-05-06T19:20:50.056Z,95502.37
2023-05-06T19:23:16.895Z,95500.48
2023-05-06T19:25:43.666Z,95503.97
2023-05-06T19:28:10.360Z,95503.00
2023-05-06T19:30:37.090Z,95503.16
2023-05-06T19:33:04.092Z,95506.55
2023-05-06T19:35:30.891Z,95500.70
2023-05-06T19:37:57.547Z,95501.80
2023-05-06T19:40:24.268Z,95502.34
2023-05-06T19:42:51.476Z,95504.43
2023-05-06T19:45:19.117Z,95510.05
2023-05-06T19:47:46.387Z,95515.23
2023-05-06T19:50:13.408Z,95512.23
2023-05-06T19:52:40.265Z,95510.81
2023-05-06T19:55:07.251Z,95510.66
2023-05-06T19:57:34.204Z,95504.83
2023-05-06T20:00:05.449Z,95502.97
2023-05-06T20:02:32.304Z,95504.16
2023-05-06T20:04:59.777Z,95505.33
2023-05-06T20:07:26.354Z,95508.50
2023-05-06T20:09:54.826Z,95510.77
2023-05-06T20:12:22.133Z,95510.42
2023-05-06T20:14:49.168Z,95514.20
2023-05-06T20:17:16.558Z,95519.01
2023-05-06T20:19:44.204Z,95512.23
2023-05-06T20:22:11.274Z,95512.13
2023-05-06T20:24:40.273Z,95509.00
2023-05-06T20:27:07.187Z,95507.09
2023-05-06T20:29:34.299Z,95505.55
2023-05-06T20:32:01.338Z,95504.17
2023-05-06T20:34:28.042Z,95501.27
2023-05-06T20:36:55.618Z,95502.55
2023-05-06T20:39:23.159Z,95499.27
2023-05-06T20:41:49.677Z,95497.88
2023-05-06T20:44:16.403Z,95495.35
2023-05-06T20:46:43.553Z,95492.99
2023-05-06T20:49:10.258Z,95490.85
2023-05-06T20:51:37.091Z,95488.23
2023-05-06T20:54:03.818Z,95490.48
2023-05-06T20:56:30.604Z,95487.30
2023-05-06T20:58:57.363Z,95482.35
2023-05-06T21:01:24.882Z,95483.81
2023-05-06T21:03:51.572Z,95481.61
2023-05-06T21:06:18.599Z,95482.44
2023-05-06T21:08:46.042Z,95479.94
2023-05-06T21:11:12.904Z,95477.94
2023-05-06T21:13:40.224Z,95475.97
2023-05-06T21:16:06.851Z,95476.55
2023-05-06T21:18:33.614Z,95472.36
2023-05-06T21:21:00.363Z,95475.23
2023-05-06T21:23:26.973Z,95477.73
2023-05-06T21:25:53.712Z,95482.83
2023-05-06T21:28:20.434Z,95487.52
2023-05-06T21:30:47.452Z,95487.80
2023-05-06T21:33:14.205Z,95489.05
2023-05-06T21:35:40.885Z,95488.43
2023-05-06T21:38:07.577Z,95488.16
2023-05-06T21:40:34.143Z,95487.38
2023-05-06T21:43:01.922Z,95493.81
2023-05-06T21:45:28.575Z,95493.40
2023-05-06T21:47:55.330Z,95499.13
2023-05-06T21:50:22.033Z,95495.40
2023-05-06T21:52:48.690Z,95496.95
2023-05-06T21:55:15.416Z,95498.25
2023-05-06T21:57:43.502Z,95494.30
2023-05-06T22:00:11.477Z,95493.19
2023-05-06T22:02:38.968Z,95492.04
2023-05-06T22:05:06.270Z,95493.41
2023-05-06T22:07:32.835Z,95494.75
2023-05-06T22:09:59.470Z,95494.71
2023-05-06T22:12:26.897Z,95497.59
2023-05-06T22:14:53.555Z,95494.38
2023-05-06T22:17:21.607Z,95495.83
2023-05-06T22:19:48.523Z,95494.15
2023-05-06T22:22:15.613Z,95490.33
2023-05-06T22:24:42.321Z,95489.82
2023-05-06T22:27:09.063Z,95488.40
2023-05-06T22:29:35.873Z,95485.12
2023-05-06T22:32:02.573Z,95486.42
2023-05-06T22:34:29.621Z,95483.37
2023-05-06T22:36:58.243Z,95482.28
2023-05-06T22:39:26.696Z,95478.33
2023-05-06T22:41:53.524Z,95478.83
2023-05-06T22:44:20.794Z,95471.55
2023-05-06T22:46:47.465Z,95468.58
2023-05-06T22:49:15.224Z,95469.54
2023-05-06T22:51:41.992Z,95467.71
2023-05-06T22:54:08.686Z,95468.54
2023-05-06T22:56:35.545Z,95465.32
2023-05-06T22:59:02.266Z,95462.19
2023-05-06T23:01:32.326Z,95464.39
2023-05-06T23:03:59.339Z,95461.03
2023-05-06T23:06:30.295Z,95462.79
2023-05-06T23:08:57.243Z,95461.83
2023-05-06T23:11:23.959Z,95461.66
2023-05-06T23:13:50.634Z,95461.58
2023-05-06T23:16:17.429Z,95459.68
2023-05-06T23:18:44.941Z,95452.48
2023-05-06T23:21:11.971Z,95453.77
2023-05-06T23:23:38.867Z,95456.77
2023-05-06T23:26:05.653Z,95457.04
2023-05-06T23:28:32.216Z,95454.27
2023-05-06T23:30:59.781Z,95448.98
2023-05-06T23:33:26.774Z,95450.47
2023-05-06T23:35:53.582Z,95457.01
2023-05-06T23:38:20.607Z,95455.69
2023-05-06T23:40:48.587Z,95456.10
2023-05-06T23:43:15.250Z,95451.12
2023-05-06T23:45:41.775Z,95448.29
2023-05-06T23:48:08.428Z,95446.16
2023-05-06T23:50:35.189Z,95444.77
2023-05-06T23:53:01.942Z,95444.84
2023-05-06T23:55:28.774Z,95437.23
2023-05-06T23:57:55.769Z,95434.73
